createdAt,value
2022-09-16T00:00:27.843Z,0.77
2022-09-16T00:02:55.431Z,0.60
2022-09-16T00:05:22.186Z,0.60
2022-09-16T00:07:48.785Z,0.60
2022-09-16T00:10:15.644Z,0.70
2022-09-16T00:12:42.190Z,0.50
2022-09-16T00:15:10.008Z,0.70
2022-09-16T00:17:37.946Z,0.60
2022-09-16T00:20:05.833Z,0.70
2022-09-16T00:22:32.447Z,0.52
2022-09-16T00:24:58.933Z,0.60
2022-09-16T00:27:25.442Z,0.70
2022-09-16T00:29:51.936Z,0.70
2022-09-16T00:32:18.515Z,0.85
2022-09-16T00:34:45.047Z,0.60
2022-09-16T00:37:11.583Z,0.80
2022-09-16T00:39:38.093Z,0.55
2022-09-16T00:42:05.515Z,0.60
2022-09-16T00:44:53.808Z,0.70
2022-09-16T00:47:31.827Z,0.50
2022-09-16T00:50:03.932Z,0.60
2022-09-16T00:52:31.518Z,0.52
2022-09-16T00:54:59.769Z,0.70
2022-09-16T00:57:26.299Z,0.60
2022-09-16T00:59:55.595Z,0.70
2022-09-16T01:02:23.919Z,0.80
2022-09-16T01:04:59.717Z,0.57
2022-09-16T01:07:42.028Z,0.75
2022-09-16T01:10:08.924Z,0.60
2022-09-16T01:12:36.553Z,0.68
2022-09-16T01:15:06.262Z,0.60
2022-09-16T01:17:50.629Z,0.70
2022-09-16T01:21:01.250Z,0.68
2022-09-16T01:23:47.850Z,0.70
2022-09-16T01:26:35.940Z,0.80
2022-09-16T01:29:36.368Z,0.60
2022-09-16T01:32:41.600Z,0.70
2022-09-16T01:35:20.349Z,0.60
2022-09-16T01:37:58.744Z,0.60
2022-09-16T01:40:31.766Z,0.50
2022-09-16T01:43:17.892Z,0.63
2022-09-16T01:45:55.403Z,0.57
2022-09-16T01:48:42.605Z,0.60
2022-09-16T01:51:21.028Z,0.60
2022-09-16T01:54:15.476Z,0.40
2022-09-16T01:57:29.768Z,0.68
2022-09-16T02:00:00.381Z,0.60
2022-09-16T02:02:34.391Z,0.50
2022-09-16T02:05:06.377Z,0.60
2022-09-16T02:07:38.424Z,0.70
2022-09-16T02:10:19.843Z,0.70
2022-09-16T02:12:48.606Z,0.50
2022-09-16T02:15:22.038Z,0.60
2022-09-16T02:17:59.538Z,0.50
2022-09-16T02:20:28.521Z,0.50
2022-09-16T02:22:59.925Z,0.60
2022-09-16T02:25:28.717Z,0.60
2022-09-16T02:27:57.032Z,0.70
2022-09-16T02:30:24.006Z,0.70
2022-09-16T02:32:57.371Z,0.57
2022-09-16T02:35:24.936Z,0.73
2022-09-16T02:37:54.218Z,0.60
2022-09-16T02:40:27.369Z,0.50
2022-09-16T02:42:54.276Z,0.60
2022-09-16T02:45:30.283Z,0.60
2022-09-16T02:48:06.435Z,0.70
2022-09-16T02:50:54.983Z,0.60
2022-09-16T02:53:40.126Z,0.50
2022-09-16T02:56:18.160Z,0.60
2022-09-16T02:58:44.678Z,0.60
2022-09-16T03:01:13.820Z,0.60
2022-09-16T03:03:41.182Z,0.82
2022-09-16T03:06:16.148Z,0.70
2022-09-16T03:08:44.339Z,0.50
2022-09-16T03:11:25.789Z,0.52
2022-09-16T03:14:36.396Z,0.70
2022-09-16T03:17:21.215Z,0.60
2022-09-16T03:20:03.049Z,0.60
2022-09-16T03:23:04.951Z,0.60
2022-09-16T03:25:44.940Z,0.70
2022-09-16T03:28:17.001Z,0.50
2022-09-16T03:30:52.280Z,0.70
2022-09-16T03:33:37.670Z,0.75
2022-09-16T03:36:08.017Z,0.73
2022-09-16T03:38:36.893Z,0.70
2022-09-16T03:41:06.296Z,0.50
2022-09-16T03:43:32.846Z,0.70
2022-09-16T03:45:59.419Z,0.57
2022-09-16T03:48:25.936Z,0.60
2022-09-16T03:50:53.304Z,0.57
2022-09-16T03:53:19.796Z,0.60
2022-09-16T03:55:49.634Z,0.60
2022-09-16T03:58:16.184Z,0.70
2022-09-16T04:00:42.774Z,0.60
2022-09-16T04:03:09.295Z,0.57
2022-09-16T04:05:35.785Z,0.70
2022-09-16T04:08:02.449Z,0.60
2022-09-16T04:10:28.920Z,0.80
2022-09-16T04:12:58.803Z,0.50
2022-09-16T04:15:25.353Z,0.50
2022-09-16T04:17:51.920Z,0.45
2022-09-16T04:20:18.668Z,0.70
2022-09-16T04:22:45.304Z,0.50
2022-09-16T04:25:11.808Z,0.50
2022-09-16T04:27:38.315Z,0.50
2022-09-16T04:30:05.117Z,0.60
2022-09-16T04:32:31.597Z,0.60
2022-09-16T04:34:58.124Z,0.60
2022-09-16T04:37:24.634Z,0.60
2022-09-16T04:39:51.181Z,0.60
2022-09-16T04:42:17.768Z,0.70
2022-09-16T04:44:44.865Z,0.60
2022-09-16T04:47:11.382Z,0.57
2022-09-16T04:49:37.853Z,0.50
2022-09-16T04:52:04.373Z,0.65
2022-09-16T04:54:30.923Z,0.52
2022-09-16T04:56:57.743Z,0.60
2022-09-16T04:59:24.265Z,0.50
2022-09-16T05:01:50.906Z,0.50
2022-09-16T05:04:17.561Z,0.60
2022-09-16T05:06:44.636Z,0.60
2022-09-16T05:09:12.451Z,0.50
2022-09-16T05:11:40.593Z,0.60
2022-09-16T05:14:10.402Z,0.60
2022-09-16T05:16:36.929Z,0.60
2022-09-16T05:19:04.998Z,0.60
2022-09-16T05:21:34.759Z,0.60
2022-09-16T05:24:02.561Z,0.73
2022-09-16T05:26:31.587Z,0.63
2022-09-16T05:29:08.042Z,0.55
2022-09-16T05:31:37.224Z,0.63
2022-09-16T05:34:14.922Z,0.70
2022-09-16T05:36:43.854Z,0.70
2022-09-16T05:39:22.818Z,0.70
2022-09-16T05:41:55.209Z,0.52
2022-09-16T05:44:21.721Z,0.50
2022-09-16T05:46:48.282Z,0.43
2022-09-16T05:49:20.493Z,0.55
2022-09-16T05:51:48.274Z,0.73
2022-09-16T05:54:14.905Z,0.68
2022-09-16T05:56:41.444Z,0.47
2022-09-16T05:59:08.001Z,0.70
2022-09-16T06:01:37.356Z,0.57
2022-09-16T06:04:06.458Z,0.52
2022-09-16T06:06:34.250Z,0.50
2022-09-16T06:09:05.814Z,0.40
2022-09-16T06:11:32.417Z,0.52
2022-09-16T06:14:01.540Z,0.50
2022-09-16T06:16:32.131Z,0.70
2022-09-16T06:19:00.470Z,0.70
2022-09-16T06:21:28.413Z,0.80
2022-09-16T06:23:55.551Z,0.70
2022-09-16T06:26:24.308Z,0.50
2022-09-16T06:28:51.804Z,0.70
2022-09-16T06:31:26.846Z,0.60
2022-09-16T06:33:55.432Z,0.50
2022-09-16T06:36:24.995Z,0.60
2022-09-16T06:38:51.507Z,0.60
2022-09-16T06:41:19.997Z,0.55
2022-09-16T06:43:47.568Z,0.60
2022-09-16T06:46:17.293Z,0.70
2022-09-16T06:48:50.621Z,0.70
2022-09-16T06:51:19.982Z,0.50
2022-09-16T06:53:46.879Z,0.70
2022-09-16T06:56:15.425Z,0.60
2022-09-16T06:58:43.824Z,0.60
2022-09-16T07:01:13.050Z,0.70
2022-09-16T07:03:41.578Z,0.55
2022-09-16T07:06:09.221Z,0.65
2022-09-16T07:08:36.707Z,0.65
2022-09-16T07:11:15.133Z,0.55
2022-09-16T07:13:42.696Z,0.47
2022-09-16T07:16:14.918Z,0.50
2022-09-16T07:18:44.819Z,0.50
2022-09-16T07:21:16.615Z,0.55
2022-09-16T07:23:44.364Z,0.57
2022-09-16T07:26:16.469Z,0.60
2022-09-16T07:28:44.268Z,0.50
2022-09-16T07:31:13.190Z,0.50
2022-09-16T07:33:41.688Z,0.60
2022-09-16T07:36:10.206Z,0.50
2022-09-16T07:38:37.271Z,0.60
2022-09-16T07:41:14.669Z,0.50
2022-09-16T07:43:42.505Z,0.60
2022-09-16T07:46:13.418Z,0.68
2022-09-16T07:48:40.793Z,0.60
2022-09-16T07:51:10.639Z,0.60
2022-09-16T07:53:38.243Z,0.70
2022-09-16T07:56:26.046Z,0.63
2022-09-16T07:58:54.255Z,0.60
2022-09-16T08:01:21.615Z,0.40
2022-09-16T08:03:48.728Z,0.50
2022-09-16T08:06:21.444Z,0.50
2022-09-16T08:08:48.245Z,0.70
2022-09-16T08:11:15.280Z,0.60
2022-09-16T08:13:43.681Z,0.60
2022-09-16T08:16:14.830Z,0.60
2022-09-16T08:18:41.794Z,0.60
2022-09-16T08:21:26.772Z,0.50
2022-09-16T08:23:54.237Z,0.70
2022-09-16T08:26:21.165Z,0.47
2022-09-16T08:29:10.712Z,0.70
2022-09-16T08:31:36.231Z,0.70
2022-09-16T08:34:03.072Z,0.60
2022-09-16T08:36:29.598Z,0.70
2022-09-16T08:38:56.790Z,0.60
2022-09-16T08:41:46.198Z,0.60
2022-09-16T08:44:37.038Z,0.45
2022-09-16T08:47:17.663Z,0.43
2022-09-16T08:49:50.533Z,0.60
2022-09-16T08:52:32.862Z,0.60
2022-09-16T08:55:04.791Z,0.50
2022-09-16T08:57:38.174Z,0.70
2022-09-16T09:00:12.688Z,0.63
2022-09-16T09:05:16.526Z,0.60
2022-09-16T09:07:55.698Z,0.47
2022-09-16T09:10:46.039Z,0.50
2022-09-16T09:13:39.722Z,0.40
2022-09-16T09:16:36.895Z,0.52
2022-09-16T09:19:15.439Z,0.57
2022-09-16T09:22:13.849Z,0.50
2022-09-16T09:24:52.405Z,0.68
2022-09-16T09:28:00.163Z,0.70
2022-09-16T09:30:28.845Z,0.73
2022-09-16T09:33:04.607Z,0.50
2022-09-16T09:35:50.429Z,0.70
2022-09-16T09:38:38.516Z,0.57
2022-09-16T09:41:30.218Z,0.50
2022-09-16T09:44:09.368Z,0.40
2022-09-16T09:46:41.527Z,0.60
2022-09-16T09:49:31.002Z,0.60
2022-09-16T09:52:02.881Z,0.70
2022-09-16T09:54:32.267Z,0.50
2022-09-16T09:57:05.800Z,0.60
2022-09-16T10:00:02.514Z,0.65
2022-09-16T10:02:29.174Z,0.52
2022-09-16T10:04:55.818Z,0.60
2022-09-16T10:07:25.738Z,0.50
2022-09-16T10:10:01.306Z,0.60
2022-09-16T10:12:33.529Z,0.60
2022-09-16T10:15:00.518Z,0.55
2022-09-16T10:17:32.576Z,0.60
2022-09-16T10:20:22.953Z,0.57
2022-09-16T10:23:10.822Z,0.50
2022-09-16T10:25:39.576Z,0.50
2022-09-16T10:28:20.072Z,0.50
2022-09-16T10:30:59.758Z,0.55
2022-09-16T10:33:31.097Z,0.50
2022-09-16T10:36:01.025Z,0.43
2022-09-16T10:38:39.886Z,0.60
2022-09-16T10:41:09.864Z,0.60
2022-09-16T10:43:39.387Z,0.63
2022-09-16T10:46:15.729Z,0.73
2022-09-16T10:48:43.333Z,0.63
2022-09-16T10:51:21.219Z,0.55
2022-09-16T10:53:57.292Z,0.60
2022-09-16T10:56:26.407Z,0.50
2022-09-16T10:59:25.237Z,0.50
2022-09-16T11:02:04.559Z,0.50
2022-09-16T11:04:49.348Z,0.60
2022-09-16T11:07:37.389Z,0.60
2022-09-16T11:10:14.455Z,0.68
2022-09-16T11:13:14.418Z,0.60
2022-09-16T11:16:18.230Z,0.57
2022-09-16T11:18:57.164Z,0.73
2022-09-16T11:21:48.756Z,0.68
2022-09-16T11:24:40.217Z,0.70
2022-09-16T11:27:25.160Z,0.75
2022-09-16T11:30:17.247Z,0.57
2022-09-16T11:33:00.517Z,0.60
2022-09-16T11:35:34.966Z,0.65
2022-09-16T11:38:07.626Z,0.70
2022-09-16T11:40:37.005Z,0.60
2022-09-16T11:43:15.494Z,0.50
2022-09-16T11:46:20.547Z,0.68
2022-09-16T11:49:14.630Z,0.55
2022-09-16T11:52:11.485Z,0.50
2022-09-16T11:55:02.710Z,0.60
2022-09-16T11:57:34.280Z,0.60
2022-09-16T12:00:04.379Z,0.70
2022-09-16T12:02:47.408Z,0.60
2022-09-16T12:05:13.974Z,0.50
2022-09-16T12:07:53.257Z,0.63
2022-09-16T12:10:24.925Z,0.50
2022-09-16T12:13:00.577Z,0.52
2022-09-16T12:15:37.599Z,0.50
2022-09-16T12:18:13.146Z,0.57
2022-09-16T12:20:47.573Z,0.70
2022-09-16T12:23:28.829Z,0.60
2022-09-16T12:26:13.396Z,0.60
2022-09-16T12:28:52.147Z,0.50
2022-09-16T12:31:34.475Z,0.57
2022-09-16T12:34:08.541Z,0.70
2022-09-16T12:36:38.340Z,0.60
2022-09-16T12:39:05.004Z,0.60
2022-09-16T12:41:53.102Z,0.50
2022-09-16T12:44:42.926Z,0.32
2022-09-16T12:47:36.711Z,0.60
2022-09-16T12:50:17.394Z,0.70
2022-09-16T12:53:18.129Z,0.45
2022-09-16T12:55:56.522Z,0.75
2022-09-16T12:58:57.075Z,0.40
2022-09-16T13:01:37.263Z,0.50
2022-09-16T13:04:10.958Z,0.50
2022-09-16T13:06:46.267Z,0.50
2022-09-16T13:09:22.550Z,0.57
2022-09-16T13:12:36.873Z,0.63
2022-09-16T13:14:53.278Z,0.63
2022-09-16T13:17:35.426Z,0.80
2022-09-16T13:20:22.112Z,0.50
2022-09-16T13:22:48.785Z,0.40
2022-09-16T13:25:26.614Z,0.60
2022-09-16T13:27:59.696Z,0.57
2022-09-16T13:30:28.667Z,0.70
2022-09-16T13:32:55.159Z,0.50
2022-09-16T13:35:37.392Z,0.45
2022-09-16T13:38:24.559Z,0.70
2022-09-16T13:41:01.764Z,0.63
2022-09-16T13:43:51.106Z,0.68
2022-09-16T13:46:33.738Z,0.50
2022-09-16T13:49:03.064Z,0.60
2022-09-16T13:51:35.915Z,0.50
2022-09-16T13:54:04.344Z,0.60
2022-09-16T13:56:53.002Z,0.68
2022-09-16T13:59:41.401Z,0.57
2022-09-16T14:02:30.835Z,0.50
2022-09-16T14:05:18.769Z,0.52
2022-09-16T14:08:13.079Z,0.45
2022-09-16T14:10:45.698Z,0.45
2022-09-16T14:13:13.415Z,0.80
2022-09-16T14:15:54.050Z,0.60
2022-09-16T14:18:24.291Z,0.50
2022-09-16T14:21:23.224Z,0.70
2022-09-16T14:23:49.809Z,0.70
2022-09-16T14:26:21.867Z,0.40
2022-09-16T14:28:48.637Z,0.52
2022-09-16T14:31:25.012Z,0.57
2022-09-16T14:36:44.074Z,0.60
2022-09-16T14:39:13.969Z,0.60
2022-09-16T14:41:50.937Z,0.70
2022-09-16T14:44:20.135Z,0.70
2022-09-16T14:46:48.920Z,0.70
2022-09-16T14:49:17.107Z,0.50
2022-09-16T14:51:48.728Z,0.55
2022-09-16T14:54:20.664Z,0.60
2022-09-16T14:57:07.612Z,0.60
2022-09-16T14:59:40.222Z,0.70
2022-09-16T15:02:18.800Z,0.65
2022-09-16T15:04:50.743Z,0.60
2022-09-16T15:07:24.734Z,0.68
2022-09-16T15:10:00.444Z,0.60
2022-09-16T15:12:32.109Z,0.60
2022-09-16T15:15:02.803Z,0.60
2022-09-16T15:17:29.357Z,0.70
2022-09-16T15:19:59.361Z,0.80
2022-09-16T15:22:27.509Z,0.60
2022-09-16T15:24:58.447Z,0.60
2022-09-16T15:27:30.146Z,0.65
2022-09-16T15:30:00.252Z,0.63
2022-09-16T15:32:31.849Z,0.60
2022-09-16T15:35:25.623Z,0.60
2022-09-16T15:37:53.713Z,0.60
2022-09-16T15:40:26.084Z,0.50
2022-09-16T15:43:12.308Z,0.82
2022-09-16T15:45:39.210Z,0.55
2022-09-16T15:48:12.712Z,0.68
2022-09-16T15:50:54.426Z,0.60
2022-09-16T15:53:42.234Z,0.70
2022-09-16T15:56:30.996Z,0.57
2022-09-16T15:59:02.052Z,0.70
2022-09-16T16:01:48.733Z,0.70
2022-09-16T16:04:26.725Z,0.68
2022-09-16T16:06:56.146Z,0.70
2022-09-16T16:09:28.605Z,0.60
2022-09-16T16:12:00.840Z,0.70
2022-09-16T16:14:33.063Z,0.65
2022-09-16T16:17:16.503Z,0.70
2022-09-16T16:19:44.558Z,0.70
2022-09-16T16:22:12.106Z,0.70
2022-09-16T16:24:38.915Z,0.73
2022-09-16T16:27:06.014Z,0.82
2022-09-16T16:29:32.608Z,0.75
2022-09-16T16:32:03.927Z,0.73
2022-09-16T16:34:35.952Z,0.82
2022-09-16T16:37:03.741Z,0.80
2022-09-16T16:39:30.537Z,0.82
2022-09-16T16:41:57.184Z,0.73
2022-09-16T16:44:24.522Z,0.70
2022-09-16T16:46:52.695Z,0.80
2022-09-16T16:49:19.684Z,0.73
2022-09-16T16:51:48.730Z,0.75
2022-09-16T16:54:15.450Z,0.60
2022-09-16T16:56:42.331Z,0.77
2022-09-16T16:59:09.038Z,0.88
2022-09-16T17:01:36.217Z,0.65
2022-09-16T17:04:03.192Z,0.77
2022-09-16T17:06:30.996Z,0.60
2022-09-16T17:08:58.023Z,0.95
2022-09-16T17:11:24.911Z,0.70
2022-09-16T17:13:53.294Z,0.70
2022-09-16T17:16:22.168Z,0.65
2022-09-16T17:18:49.006Z,0.80
2022-09-16T17:21:23.552Z,0.93
2022-09-16T17:23:50.889Z,0.60
2022-09-16T17:26:18.078Z,0.80
2022-09-16T17:28:46.451Z,0.70
2022-09-16T17:31:31.403Z,0.70
2022-09-16T17:34:05.356Z,0.80
2022-09-16T17:36:33.577Z,0.80
2022-09-16T17:39:02.316Z,0.80
2022-09-16T17:41:29.391Z,0.68
2022-09-16T17:43:57.054Z,0.90
2022-09-16T17:46:27.282Z,0.80
2022-09-16T17:48:59.973Z,0.70
2022-09-16T17:51:26.708Z,0.80
2022-09-16T17:53:53.471Z,0.93
2022-09-16T17:56:19.993Z,1.08
2022-09-16T17:58:47.707Z,1.00
2022-09-16T18:01:17.365Z,1.10
2022-09-16T18:03:45.583Z,0.80
2022-09-16T18:06:22.953Z,1.27
2022-09-16T18:08:50.908Z,0.90
2022-09-16T18:11:18.544Z,0.80
2022-09-16T18:13:48.255Z,1.00
2022-09-16T18:16:19.042Z,0.93
2022-09-16T18:18:49.408Z,0.95
2022-09-16T18:21:17.773Z,1.23
2022-09-16T18:23:44.783Z,0.93
2022-09-16T18:26:14.145Z,1.20
2022-09-16T18:29:08.074Z,1.05
2022-09-16T18:31:30.564Z,1.00
2022-09-16T18:33:57.132Z,1.20
2022-09-16T18:36:26.326Z,0.90
2022-09-16T18:38:57.587Z,1.02
2022-09-16T18:41:26.674Z,0.95
2022-09-16T18:43:58.812Z,1.20
2022-09-16T18:46:27.889Z,1.00
2022-09-16T18:48:55.266Z,1.02
2022-09-16T18:51:33.444Z,0.90
2022-09-16T18:54:02.792Z,1.02
2022-09-16T18:56:32.102Z,0.93
2022-09-16T18:59:22.040Z,1.20
2022-09-16T19:01:51.989Z,1.00
2022-09-16T19:04:21.607Z,1.00
2022-09-16T19:06:50.470Z,0.85
2022-09-16T19:09:19.402Z,0.90
2022-09-16T19:11:49.450Z,1.00
2022-09-16T19:14:16.720Z,1.00
2022-09-16T19:16:45.528Z,1.30
2022-09-16T19:19:14.029Z,1.10
2022-09-16T19:21:42.130Z,1.08
2022-09-16T19:24:14.020Z,1.20
2022-09-16T19:26:41.745Z,1.05
2022-09-16T19:29:08.792Z,1.10
2022-09-16T19:31:37.768Z,1.20
2022-09-16T19:34:04.876Z,1.00
2022-09-16T19:36:32.543Z,1.27
2022-09-16T19:38:59.991Z,1.30
2022-09-16T19:41:29.585Z,0.90
2022-09-16T19:44:01.402Z,1.02
2022-09-16T19:46:29.970Z,1.08
2022-09-16T19:48:56.503Z,1.15
2022-09-16T19:51:24.452Z,1.08
2022-09-16T19:53:52.442Z,1.38
2022-09-16T19:56:21.807Z,1.20
2022-09-16T19:58:49.295Z,1.15
2022-09-16T20:01:21.718Z,0.82
2022-09-16T20:03:51.108Z,1.27
2022-09-16T20:06:23.669Z,1.10
2022-09-16T20:08:56.936Z,1.00
2022-09-16T20:11:25.274Z,1.23
2022-09-16T20:13:56.923Z,1.05
2022-09-16T20:16:26.971Z,1.40
2022-09-16T20:18:54.024Z,1.13
2022-09-16T20:21:23.942Z,0.98
2022-09-16T20:23:51.377Z,1.00
2022-09-16T20:26:22.071Z,1.02
2022-09-16T20:28:50.765Z,1.30
2022-09-16T20:31:20.570Z,1.17
2022-09-16T20:33:47.801Z,1.02
2022-09-16T20:36:17.094Z,0.90
2022-09-16T20:38:44.617Z,1.20
2022-09-16T20:41:13.752Z,1.13
2022-09-16T20:43:41.276Z,1.10
2022-09-16T20:46:14.988Z,1.23
2022-09-16T20:48:42.615Z,1.15
2022-09-16T20:51:16.892Z,1.33
2022-09-16T20:53:44.285Z,0.90
2022-09-16T20:56:13.727Z,1.00
2022-09-16T20:58:41.069Z,1.20
2022-09-16T21:01:11.636Z,1.15
2022-09-16T21:03:39.560Z,1.00
2022-09-16T21:06:14.646Z,1.20
2022-09-16T21:08:42.117Z,1.02
2022-09-16T21:11:11.667Z,1.00
2022-09-16T21:13:41.336Z,1.10
2022-09-16T21:16:11.159Z,1.08
2022-09-16T21:18:39.123Z,0.90
2022-09-16T21:21:08.349Z,1.17
2022-09-16T21:23:35.450Z,1.00
2022-09-16T21:26:07.224Z,1.08
2022-09-16T21:28:34.379Z,1.10
2022-09-16T21:31:06.472Z,1.30
2022-09-16T21:33:38.069Z,1.13
2022-09-16T21:36:05.726Z,1.20
2022-09-16T21:38:33.217Z,1.00
2022-09-16T21:41:12.662Z,1.42
2022-09-16T21:43:49.616Z,1.08
2022-09-16T21:46:20.104Z,0.95
2022-09-16T21:48:47.790Z,0.93
2022-09-16T21:51:16.820Z,1.10
2022-09-16T21:53:44.101Z,0.80
2022-09-16T21:56:14.635Z,1.00
2022-09-16T21:58:41.856Z,1.00
2022-09-16T22:01:11.722Z,0.80
2022-09-16T22:03:39.827Z,1.05
2022-09-16T22:06:08.517Z,1.20
2022-09-16T22:08:35.716Z,1.10
2022-09-16T22:11:04.520Z,1.13
2022-09-16T22:13:32.379Z,1.23
2022-09-16T22:15:59.856Z,1.10
2022-09-16T22:18:28.318Z,1.00
2022-09-16T22:20:58.594Z,1.27
2022-09-16T22:23:25.109Z,1.20
2022-09-16T22:25:51.641Z,1.13
2022-09-16T22:28:18.157Z,1.15
2022-09-16T22:30:44.751Z,0.90
2022-09-16T22:33:11.307Z,1.00
2022-09-16T22:35:37.849Z,1.00
2022-09-16T22:38:04.631Z,1.38
2022-09-16T22:40:31.268Z,1.15
2022-09-16T22:42:58.289Z,0.85
2022-09-16T22:45:24.899Z,1.00
2022-09-16T22:47:51.761Z,1.00
2022-09-16T22:50:18.297Z,1.00
2022-09-16T22:52:44.788Z,1.15
2022-09-16T22:55:11.292Z,1.23
2022-09-16T22:57:37.781Z,1.25
2022-09-16T23:00:04.484Z,1.02
2022-09-16T23:02:30.984Z,1.10
2022-09-16T23:04:57.528Z,1.23
2022-09-16T23:07:24.031Z,1.10
2022-09-16T23:09:50.545Z,1.23
2022-09-16T23:12:17.036Z,0.85
2022-09-16T23:14:43.533Z,1.00
2022-09-16T23:17:10.033Z,1.23
2022-09-16T23:19:36.596Z,1.20
2022-09-16T23:22:03.197Z,1.00
2022-09-16T23:24:29.673Z,1.30
2022-09-16T23:26:56.183Z,1.08
2022-09-16T23:29:22.690Z,1.00
2022-09-16T23:31:49.193Z,1.00
2022-09-16T23:34:19.886Z,1.10
2022-09-16T23:36:46.812Z,0.98
2022-09-16T23:39:15.199Z,0.88
2022-09-16T23:41:43.233Z,1.27
2022-09-16T23:44:13.504Z,1.02
2022-09-16T23:46:40.126Z,1.10
2022-09-16T23:49:06.758Z,1.10
2022-09-16T23:51:33.318Z,0.95
2022-09-16T23:54:00.323Z,1.00
2022-09-16T23:56:27.257Z,1.20
2022-09-16T23:58:55.066Z,1.35
